Time;durP1;ratioP1;P1;durP2;ratioP2;P2;SDS_P1;SDS_P2;PMS_P1;PMS_P2;Temp;Humidity;BMP_temperature;BMP_pressure;BME280_temperature;BME280_humidity;BME280_pressure;Samples;Min_cycle;Max_cycle;Signal;HPM_P1;HPM_P2
2023/12/25 00:01:51;;;;;;;14.60;8.30;;;;;;;-2.02;78.28;98380.78;105815;1254;74572;-78
2023/12/25 00:04:18;;;;;;;16.60;8.30;;;;;;;-2.13;78.67;98383.36;105821;1258;72610;-77
2023/12/25 00:06:46;;;;;;;15.10;7.80;;;;;;;-2.14;78.97;98387.80;105745;1254;71676;-78
2023/12/25 00:09:14;;;;;;;16.00;8.60;;;;;;;-2.07;78.96;98385.52;105790;1259;60416;-75
2023/12/25 00:11:41;;;;;;;12.60;7.30;;;;;;;-2.07;78.94;98389.50;105855;1257;60622;-75
2023/12/25 00:14:09;;;;;;;12.70;8.70;;;;;;;-2.14;79.21;98389.15;105878;1259;72497;-78
2023/12/25 00:16:37;;;;;;;16.90;9.20;;;;;;;-2.19;79.36;98380.37;106345;1254;69462;-78
2023/12/25 00:19:04;;;;;;;17.10;9.40;;;;;;;-2.22;79.66;98367.95;105755;1257;73210;-77
2023/12/25 00:21:32;;;;;;;15.00;9.00;;;;;;;-2.25;79.72;98361.89;105713;1257;62597;-77
2023/12/25 00:24:00;;;;;;;14.50;8.90;;;;;;;-2.15;79.56;98355.09;105676;1259;61967;-79
2023/12/25 00:26:27;;;;;;;13.50;8.30;;;;;;;-2.06;79.30;98344.48;105874;1260;74137;-75
2023/12/25 00:29:01;;;;;;;;;;;;;;;-2.08;79.24;98333.02;105687;1260;68880;-77
2023/12/25 00:31:28;;;;;;;16.50;9.90;;;;;;;-2.14;79.41;98325.66;106880;1254;71350;-73
2023/12/25 00:33:56;;;;;;;17.30;9.40;;;;;;;-2.18;79.50;98318.34;107591;1262;59230;-75
2023/12/25 00:36:24;;;;;;;16.10;9.70;;;;;;;-2.21;79.51;98313.60;107207;1259;60371;-77
2023/12/25 00:38:52;;;;;;;14.10;9.00;;;;;;;-2.24;79.50;98309.81;105808;1259;74677;-75
2023/12/25 00:41:20;;;;;;;18.70;8.90;;;;;;;-2.17;79.40;98314.31;105865;1259;68723;-77
2023/12/25 00:43:47;;;;;;;13.30;8.50;;;;;;;-2.10;79.14;98304.21;105853;1260;70413;-75
2023/12/25 00:46:16;;;;;;;14.60;9.00;;;;;;;-2.14;79.26;98296.05;105768;1259;60480;-76
2023/12/25 00:48:44;;;;;;;15.90;9.10;;;;;;;-2.20;79.54;98288.63;105716;1260;60436;-73
2023/12/25 00:51:12;;;;;;;18.00;10.10;;;;;;;-2.25;79.64;98290.11;105679;1254;73921;-76
2023/12/25 00:53:40;;;;;;;19.60;9.50;;;;;;;-2.31;79.62;98277.96;105865;1254;69985;-74
2023/12/25 00:56:08;;;;;;;18.00;9.40;;;;;;;-2.34;79.86;98274.58;106326;1254;70389;-76
2023/12/25 00:58:36;;;;;;;16.60;9.20;;;;;;;-2.25;79.70;98264.27;106224;1256;60565;-76
2023/12/25 01:01:04;;;;;;;17.70;8.70;;;;;;;-2.18;79.50;98261.77;105800;1267;60436;-76
2023/12/25 01:03:32;;;;;;;17.10;8.90;;;;;;;-2.23;79.65;98262.19;105755;1261;74171;-77
2023/12/25 01:05:59;;;;;;;12.90;8.20;;;;;;;-2.29;79.80;98256.48;105866;1260;68767;-78
2023/12/25 01:08:27;;;;;;;17.40;8.90;;;;;;;-2.35;80.05;98253.80;105934;1254;72660;-78
2023/12/25 01:10:55;;;;;;;16.10;8.20;;;;;;;-2.30;80.01;98249.73;105805;1257;60905;-79
2023/12/25 01:13:22;;;;;;;12.70;7.10;;;;;;;-2.24;79.84;98230.19;105885;1253;62327;-78
2023/12/25 01:15:50;;;;;;;13.00;7.40;;;;;;;-2.30;80.23;98232.58;106128;1260;73878;-75
2023/12/25 01:18:17;;;;;;;13.40;7.40;;;;;;;-2.34;80.69;98227.87;106028;1259;69122;-78
2023/12/25 01:20:46;;;;;;;13.70;7.30;;;;;;;-2.33;81.02;98229.17;106045;1257;72861;-78
2023/12/25 01:23:14;;;;;;;12.50;8.40;;;;;;;-2.22;81.29;98231.05;105792;1259;60517;-74
2023/12/25 01:25:42;;;;;;;16.20;8.00;;;;;;;-2.20;81.27;98232.65;106766;1254;60015;-76
2023/12/25 01:28:09;;;;;;;12.10;7.10;;;;;;;-2.24;81.61;98226.73;108249;1258;71770;-78
2023/12/25 01:30:37;;;;;;;11.50;6.20;;;;;;;-2.25;82.10;98220.75;106856;1260;70421;-77
2023/12/25 01:33:04;;;;;;;11.40;7.10;;;;;;;-2.12;82.37;98225.45;105796;1257;72656;-77
2023/12/25 01:35:32;;;;;;;13.10;6.90;;;;;;;-2.06;82.44;98222.30;106175;1263;60442;-77
2023/12/25 01:38:00;;;;;;;15.70;7.90;;;;;;;-2.08;82.87;98211.42;106788;1253;60328;-75
2023/12/25 01:40:27;;;;;;;11.20;7.50;;;;;;;-2.07;83.42;98206.16;106983;1260;76038;-80
2023/12/25 01:42:56;;;;;;;12.20;7.50;;;;;;;-1.96;83.94;98204.67;106191;1254;71916;-76
2023/12/25 01:45:23;;;;;;;10.30;6.70;;;;;;;-1.92;84.25;98195.54;105770;1261;71472;-75
2023/12/25 01:47:51;;;;;;;10.90;6.50;;;;;;;-1.98;85.31;98190.97;105696;1262;60492;-75
2023/12/25 01:50:19;;;;;;;12.40;6.50;;;;;;;-2.02;85.80;98182.26;105831;1253;60483;-76
2023/12/25 01:52:49;;;;;;;10.80;7.20;;;;;;;-1.92;86.08;98185.95;105852;1255;72817;-74
2023/12/25 01:55:17;;;;;;;13.80;7.10;;;;;;;-1.88;86.87;98180.80;105862;1260;70306;-78
2023/12/25 01:57:44;;;;;;;13.20;7.60;;;;;;;-1.92;87.59;98171.74;105938;1254;72611;-78
2023/12/25 02:00:13;;;;;;;11.10;6.70;;;;;;;-1.96;88.22;98151.23;105950;1255;60625;-77
2023/12/25 02:02:42;;;;;;;11.00;7.40;;;;;;;-1.87;88.59;98145.16;106200;1255;60438;-78
2023/12/25 02:05:10;;;;;;;13.50;8.20;;;;;;;-1.79;88.55;98142.91;106359;1255;73732;-79
2023/12/25 02:07:39;;;;;;;12.50;7.70;;;;;;;-1.81;89.01;98142.38;106089;1254;70325;-80
2023/12/25 02:10:07;;;;;;;14.00;7.80;;;;;;;-1.85;89.85;98156.27;105786;1269;71491;-76
2023/12/25 02:12:39;;;;;;;11.40;6.90;;;;;;;-1.83;90.61;98150.48;106135;1254;61167;-78
2023/12/25 02:15:06;;;;;;;11.70;7.80;;;;;;;-1.74;91.46;98141.48;106241;1254;60501;-77
2023/12/25 02:17:34;;;;;;;10.80;7.00;;;;;;;-1.76;92.02;98130.34;106026;1254;74953;-75
2023/12/25 02:20:03;;;;;;;16.10;8.90;;;;;;;-1.82;92.35;98126.99;106631;1260;70427;-77
2023/12/25 02:22:30;;;;;;;10.30;7.10;;;;;;;-1.84;93.19;98125.11;107548;1254;72677;-79
2023/12/25 02:25:13;;;;;;;10.20;7.80;;;;;;;-1.73;93.57;98109.25;106859;1257;62868;-78
2023/12/25 02:27:40;;;;;;;11.90;8.00;;;;;;;-1.66;93.58;98100.52;106076;1260;60368;-77
2023/12/25 02:30:08;;;;;;;12.20;8.10;;;;;;;-1.71;93.95;98090.11;106483;1258;74145;-76
2023/12/25 02:32:36;;;;;;;11.90;8.10;;;;;;;-1.74;94.09;98086.04;106103;1254;69056;-77
2023/12/25 02:35:04;;;;;;;11.30;7.50;;;;;;;-1.67;94.11;98076.83;105805;1260;72541;-77
2023/12/25 02:37:31;;;;;;;11.40;8.50;;;;;;;-1.62;94.04;98080.39;105729;1258;60540;-77
2023/12/25 02:39:59;;;;;;;13.50;7.60;;;;;;;-1.67;94.12;98073.46;105760;1257;60338;-76
2023/12/25 02:42:26;;;;;;;12.80;8.00;;;;;;;-1.61;94.04;98070.88;105768;1258;74132;-78
2023/12/25 02:44:54;;;;;;;9.30;6.60;;;;;;;-1.52;94.04;98072.22;105899;1260;70226;-76
2023/12/25 02:47:22;;;;;;;11.80;7.50;;;;;;;-1.55;94.23;98065.55;105814;1254;72654;-78
2023/12/25 02:49:50;;;;;;;9.90;6.90;;;;;;;-1.63;94.48;98062.52;105770;1259;60496;-79
2023/12/25 02:52:17;;;;;;;10.90;7.40;;;;;;;-1.58;94.54;98062.15;105665;1257;60344;-75
2023/12/25 02:54:45;;;;;;;10.50;7.10;;;;;;;-1.49;94.39;98059.30;105690;1255;73928;-78
2023/12/25 02:57:12;;;;;;;13.40;7.60;;;;;;;-1.50;94.63;98059.70;105764;1261;70623;-79
2023/12/25 02:59:40;;;;;;;11.60;7.20;;;;;;;-1.55;95.08;98055.32;105801;1259;71697;-77
2023/12/25 03:02:08;;;;;;;9.70;6.40;;;;;;;-1.57;95.33;98051.15;105791;1259;60454;-79
2023/12/25 03:04:35;;;;;;;8.00;6.30;;;;;;;-1.48;95.17;98049.42;105717;1258;60369;-77
2023/12/25 03:07:03;;;;;;;8.80;6.80;;;;;;;-1.40;94.75;98042.48;105742;1254;72581;-79
2023/12/25 03:09:30;;;;;;;8.70;7.00;;;;;;;-1.41;94.96;98035.10;105570;1260;69679;-78
2023/12/25 03:11:58;;;;;;;8.90;6.40;;;;;;;-1.46;95.47;98034.52;105736;1255;72516;-77
2023/12/25 03:14:26;;;;;;;8.90;5.60;;;;;;;-1.44;95.54;98032.63;107075;1260;60450;-76
2023/12/25 03:16:53;;;;;;;8.80;6.60;;;;;;;-1.34;95.16;98016.25;107273;1254;60597;-75
2023/12/25 03:19:21;;;;;;;10.00;6.40;;;;;;;-1.31;95.33;97996.23;106513;1253;72828;-77
2023/12/25 03:21:48;;;;;;;8.60;6.30;;;;;;;-1.33;95.70;97996.80;105778;1260;68848;-76
2023/12/25 03:24:16;;;;;;;9.70;6.40;;;;;;;-1.33;95.91;97990.27;105942;1258;71355;-77
2023/12/25 03:26:43;;;;;;;9.80;6.20;;;;;;;-1.24;95.76;97977.86;105902;1257;60418;-75
2023/12/25 03:29:11;;;;;;;9.80;5.60;;;;;;;-1.21;96.31;97963.85;105852;1254;60520;-75
2023/12/25 03:31:39;;;;;;;9.10;6.40;;;;;;;-1.25;97.15;97956.80;105757;1260;73956;-74
2023/12/25 03:34:06;;;;;;;7.70;5.70;;;;;;;-1.28;97.89;97947.89;105757;1254;70399;-74
2023/12/25 03:36:34;;;;;;;8.60;6.00;;;;;;;-1.18;98.31;97938.99;105959;1257;71619;-77
2023/12/25 03:39:02;;;;;;;9.60;5.80;;;;;;;-1.13;98.41;97924.80;106943;1256;60683;-75
2023/12/25 03:41:30;;;;;;;10.60;6.30;;;;;;;-1.18;99.18;97925.09;107203;1254;60303;-76
2023/12/25 03:43:58;;;;;;;9.40;5.70;;;;;;;-1.24;99.67;97914.17;106218;1252;72712;-75
2023/12/25 03:46:26;;;;;;;8.10;5.30;;;;;;;-1.16;99.96;97904.90;105874;1254;72055;-77
2023/12/25 03:48:53;;;;;;;6.50;4.90;;;;;;;-1.10;99.98;97888.19;105789;1260;71478;-76
2023/12/25 03:51:22;;;;;;;5.80;4.70;;;;;;;-1.12;99.99;97877.10;105782;1254;60614;-76
2023/12/25 03:53:49;;;;;;;9.30;4.80;;;;;;;-1.13;100.00;97864.86;105702;1255;60569;-73
2023/12/25 03:56:17;;;;;;;7.10;4.70;;;;;;;-1.07;99.97;97855.13;105583;1262;74169;-76
2023/12/25 03:58:45;;;;;;;6.10;4.40;;;;;;;-1.07;100.00;97847.83;105726;1254;70105;-78
2023/12/25 04:01:12;;;;;;;6.70;4.60;;;;;;;-1.11;100.00;97848.87;105862;1254;72610;-79
2023/12/25 04:03:41;;;;;;;6.30;4.70;;;;;;;-1.05;100.00;97845.29;107298;1254;60853;-75
2023/12/25 04:06:08;;;;;;;6.90;5.00;;;;;;;-0.97;100.00;97841.36;105891;1260;60538;-78
2023/12/25 04:08:37;;;;;;;8.30;5.60;;;;;;;-1.01;100.00;97832.44;107342;1254;73817;-77
2023/12/25 04:11:05;;;;;;;5.50;4.40;;;;;;;-1.04;100.00;97835.83;108626;1254;69328;-77
2023/12/25 04:13:32;;;;;;;5.70;4.50;;;;;;;-0.95;100.00;97830.70;106847;1260;71222;-76
2023/12/25 04:16:00;;;;;;;7.90;6.00;;;;;;;-0.87;100.00;97823.70;105833;1260;60534;-76
2023/12/25 04:18:27;;;;;;;8.30;5.50;;;;;;;-0.90;100.00;97819.14;105960;1260;60435;-78
2023/12/25 04:20:55;;;;;;;7.30;5.20;;;;;;;-0.93;100.00;97810.94;105733;1261;73800;-78
2023/12/25 04:23:23;;;;;;;7.00;5.80;;;;;;;-0.88;100.00;97830.04;105802;1260;69375;-77
2023/12/25 04:25:51;;;;;;;8.30;6.20;;;;;;;-0.79;100.00;97807.51;105806;1258;71512;-78
2023/12/25 04:28:19;;;;;;;10.00;6.70;;;;;;;-0.84;100.00;97819.08;105654;1258;60577;-77
2023/12/25 04:30:46;;;;;;;6.70;5.00;;;;;;;-0.84;100.00;97801.70;106041;1260;60421;-78
2023/12/25 04:33:14;;;;;;;7.20;5.80;;;;;;;-0.76;100.00;97802.34;106570;1254;72638;-79
2023/12/25 04:35:42;;;;;;;9.70;6.10;;;;;;;-0.78;100.00;97797.52;107751;1259;71093;-79
2023/12/25 04:38:10;;;;;;;8.90;6.60;;;;;;;-0.77;100.00;97789.73;106843;1254;71423;-77
2023/12/25 04:40:38;;;;;;;8.80;5.90;;;;;;;-0.68;100.00;97790.08;108239;1259;61824;-78
2023/12/25 04:43:05;;;;;;;8.70;7.00;;;;;;;-0.64;100.00;97790.10;108299;1254;59113;-78
2023/12/25 04:45:36;;;;;;;11.30;7.00;;;;;;;-0.68;100.00;97775.73;106007;1254;76103;-78
2023/12/25 04:48:04;;;;;;;11.00;7.30;;;;;;;-0.62;100.00;97778.05;105648;1254;70158;-77
2023/12/25 04:50:33;;;;;;;9.80;7.10;;;;;;;-0.57;100.00;97770.29;105729;1254;72747;-76
2023/12/25 04:53:01;;;;;;;13.20;7.50;;;;;;;-0.61;100.00;97775.17;106385;1259;60429;-81
2023/12/25 04:55:32;;;;;;;10.80;7.10;;;;;;;-0.56;100.00;97757.34;106512;1254;61056;-79
2023/12/25 04:58:01;;;;;;;10.30;7.20;;;;;;;-0.47;100.00;97750.21;106209;1260;73860;-78
2023/12/25 05:00:31;;;;;;;10.70;7.50;;;;;;;-0.45;100.00;97745.50;105876;1254;70117;-81
2023/12/25 05:02:59;;;;;;;9.60;6.90;;;;;;;-0.51;100.00;97744.50;107646;1254;72913;-81
2023/12/25 05:05:28;;;;;;;10.00;7.00;;;;;;;-0.48;100.00;97739.52;108720;1254;354011;-80
2023/12/25 05:09:10;;;;;;;9.70;7.20;;;;;;;-0.31;100.00;97724.84;103233;1292;614530;-83
2023/12/25 05:11:38;;;;;;;8.90;6.90;;;;;;;-0.33;100.00;97725.79;106308;1257;59287;-84
2023/12/25 05:14:06;;;;;;;9.90;7.00;;;;;;;-0.28;100.00;97716.05;106011;1263;59237;-83
2023/12/25 05:16:32;;;;;;;11.10;7.50;;;;;;;-0.21;100.00;97713.12;105921;1263;72282;-81
2023/12/25 05:19:00;;;;;;;10.70;7.50;;;;;;;-0.24;100.00;97711.13;105701;1263;68902;-83
2023/12/25 05:21:27;;;;;;;10.60;8.00;;;;;;;-0.25;100.00;97703.01;105500;1263;164659;-82
2023/12/25 05:23:54;;;;;;;8.90;7.00;;;;;;;-0.14;100.00;97702.51;105643;1257;59920;-82
2023/12/25 05:26:21;;;;;;;9.90;7.30;;;;;;;-0.07;100.00;97683.77;106354;1257;59366;-82
2023/12/25 05:28:49;;;;;;;11.10;7.10;;;;;;;-0.08;100.00;97675.52;106341;1259;72164;-82
2023/12/25 05:31:15;;;;;;;11.50;6.90;;;;;;;-0.08;100.00;97675.51;106367;1258;70307;-82
2023/12/25 05:33:42;;;;;;;9.50;6.90;;;;;;;0.03;100.00;97661.89;106941;1257;71135;-81
2023/12/25 05:36:10;;;;;;;10.50;7.70;;;;;;;0.12;100.00;97668.41;108950;1254;60306;-79
2023/12/25 05:38:36;;;;;;;10.60;6.90;;;;;;;0.17;100.00;97665.33;107597;1254;59490;-81
2023/12/25 05:41:03;;;;;;;11.00;6.90;;;;;;;0.15;100.00;97660.10;107417;1257;71714;-82
2023/12/25 05:43:30;;;;;;;8.40;5.60;;;;;;;0.24;100.00;97669.05;107952;1251;68214;-80
2023/12/25 05:45:57;;;;;;;8.40;6.20;;;;;;;0.33;100.00;97649.29;107480;1251;71366;-81
2023/12/25 05:48:23;;;;;;;8.10;6.20;;;;;;;0.39;100.00;97642.44;108209;1251;59670;-79
2023/12/25 05:50:51;;;;;;;9.70;6.60;;;;;;;0.37;100.00;97636.73;109104;1254;59121;-83
2023/12/25 05:53:17;;;;;;;10.60;7.30;;;;;;;0.43;100.00;97629.64;109379;1257;71884;-82
2023/12/25 05:55:44;;;;;;;9.60;6.10;;;;;;;0.53;100.00;97617.46;109273;1252;69443;-83
2023/12/25 05:58:12;;;;;;;8.00;5.90;;;;;;;0.59;100.00;97624.05;109586;1251;71311;-84
2023/12/25 06:00:39;;;;;;;8.80;6.40;;;;;;;0.56;100.00;97620.80;109740;1255;58027;-79
2023/12/25 06:03:06;;;;;;;7.40;5.80;;;;;;;0.59;100.00;97612.91;109418;1255;58743;-82
2023/12/25 06:05:34;;;;;;;7.60;5.60;;;;;;;0.68;100.00;97600.15;109620;1256;73211;-85
2023/12/25 06:08:02;;;;;;;9.20;5.80;;;;;;;0.78;100.00;97623.86;109491;1257;67978;-81
2023/12/25 06:10:30;;;;;;;7.90;5.50;;;;;;;0.84;100.00;97614.31;108964;1254;71381;-82
2023/12/25 06:12:57;;;;;;;9.00;5.70;;;;;;;0.85;100.00;97627.15;108723;1253;59795;-81
2023/12/25 06:15:24;;;;;;;8.50;6.40;;;;;;;0.95;100.00;97622.59;108991;1253;59568;-81
2023/12/25 06:17:51;;;;;;;8.00;5.10;;;;;;;1.05;100.00;97645.80;109029;1254;71768;-81
2023/12/25 06:20:18;;;;;;;7.00;4.90;;;;;;;1.11;100.00;97634.02;108591;1254;68997;-82
2023/12/25 06:22:46;;;;;;;7.00;5.70;;;;;;;1.16;100.00;97627.07;107413;1257;72768;-78
2023/12/25 06:25:13;;;;;;;10.90;5.90;;;;;;;1.19;100.00;97629.34;107001;1255;60887;-77
2023/12/25 06:27:39;;;;;;;8.20;4.90;;;;;;;1.21;100.00;97629.83;106750;1254;60299;-78
2023/12/25 06:30:21;;;;;;;9.20;5.00;;;;;;;1.23;100.00;97629.45;106159;1255;72557;-77
2023/12/25 06:32:48;;;;;;;14.10;6.90;;;;;;;1.33;100.00;97616.02;106051;1257;70209;-74
2023/12/25 06:35:15;;;;;;;9.70;5.10;;;;;;;1.43;100.00;97627.88;106068;1255;72719;-77
2023/12/25 06:37:42;;;;;;;8.30;4.70;;;;;;;1.50;100.00;97618.14;106285;1256;59698;-77
2023/12/25 06:40:09;;;;;;;5.50;3.70;;;;;;;1.53;100.00;97614.98;106412;1257;60948;-78
2023/12/25 06:42:37;;;;;;;4.70;3.30;;;;;;;1.56;100.00;97603.68;106431;1254;71597;-76
2023/12/25 06:45:05;;;;;;;6.10;3.30;;;;;;;1.61;100.00;97611.56;106332;1254;70157;-74
2023/12/25 06:47:34;;;;;;;5.70;4.30;;;;;;;1.64;100.00;97606.70;106612;1257;71507;-77
2023/12/25 06:50:01;;;;;;;6.30;4.30;;;;;;;1.67;100.00;97607.25;106632;1255;60246;-78
2023/12/25 06:52:28;;;;;;;5.90;4.50;;;;;;;1.71;100.00;97595.36;107628;1253;60335;-77
2023/12/25 06:54:54;;;;;;;5.10;4.00;;;;;;;1.73;100.00;97610.03;106394;1256;71066;-75
2023/12/25 06:57:21;;;;;;;6.20;4.50;;;;;;;1.76;100.00;97595.36;106093;1257;71832;-76
2023/12/25 06:59:48;;;;;;;5.90;4.20;;;;;;;1.81;100.00;97599.98;106368;1257;72467;-74
2023/12/25 07:02:15;;;;;;;6.40;4.20;;;;;;;1.84;100.00;97601.94;106413;1257;60559;-75
2023/12/25 07:04:42;;;;;;;8.10;4.90;;;;;;;1.87;100.00;97586.74;106048;1261;59720;-76
2023/12/25 07:07:09;;;;;;;7.80;4.70;;;;;;;1.91;100.00;97597.88;106051;1257;72732;-74
2023/12/25 07:09:41;;;;;;;7.60;4.60;;;;;;;1.92;100.00;97589.40;106272;1254;70259;-76
2023/12/25 07:12:08;;;;;;;8.00;4.50;;;;;;;1.92;100.00;97583.24;105937;1254;72795;-76
2023/12/25 07:14:35;;;;;;;5.70;4.60;;;;;;;1.92;100.00;97579.93;105947;1257;59669;-76
2023/12/25 07:17:04;;;;;;;7.40;4.70;;;;;;;1.92;100.00;97586.69;106056;1257;60205;-76
2023/12/25 07:19:31;;;;;;;8.80;6.20;;;;;;;1.94;100.00;97587.91;106247;1254;73041;-75
2023/12/25 07:21:58;;;;;;;9.10;5.40;;;;;;;1.96;100.00;97583.50;105985;1257;70102;-74
2023/12/25 07:24:25;;;;;;;6.60;4.50;;;;;;;1.98;100.00;97597.80;105952;1257;72776;-74
2023/12/25 07:26:51;;;;;;;6.70;5.20;;;;;;;2.02;100.00;97585.67;105896;1257;60256;-75
2023/12/25 07:29:19;;;;;;;5.90;4.30;;;;;;;2.04;100.00;97588.09;105923;1254;60398;-76
2023/12/25 07:31:45;;;;;;;8.20;4.90;;;;;;;2.07;100.00;97569.27;106115;1256;73042;-75
2023/12/25 07:34:12;;;;;;;8.60;5.00;;;;;;;2.10;100.00;97571.64;106791;1257;59506;-75
2023/12/25 07:36:39;;;;;;;6.70;4.50;;;;;;;2.12;100.00;97592.44;107454;1257;71189;-78
2023/12/25 07:39:06;;;;;;;7.70;4.80;;;;;;;2.12;100.00;97584.34;107399;1253;59679;-78
2023/12/25 07:41:33;;;;;;;8.00;4.80;;;;;;;2.15;100.00;97581.95;106267;1254;59670;-76
2023/12/25 07:44:01;;;;;;;7.60;4.90;;;;;;;2.18;100.00;97592.13;106218;1256;73519;-75
2023/12/25 07:46:28;;;;;;;6.80;5.20;;;;;;;2.18;100.00;97586.95;107850;1253;70372;-78
2023/12/25 07:48:54;;;;;;;7.20;5.20;;;;;;;2.14;100.00;97594.96;108401;1253;71157;-78
2023/12/25 07:51:21;;;;;;;9.80;6.50;;;;;;;2.12;100.00;97588.17;106862;1253;59865;-77
2023/12/25 07:53:48;;;;;;;9.00;5.20;;;;;;;2.12;100.00;97583.49;106130;1257;60435;-77
2023/12/25 07:56:15;;;;;;;9.80;5.70;;;;;;;2.15;100.00;97583.04;106629;1254;71596;-79
2023/12/25 07:58:42;;;;;;;9.40;6.30;;;;;;;2.15;100.00;97592.55;107166;1254;68871;-76
2023/12/25 08:01:10;;;;;;;9.20;5.80;;;;;;;2.16;100.00;97597.54;106676;1257;71057;-76
2023/12/25 08:03:37;;;;;;;11.10;6.60;;;;;;;2.18;100.00;97593.77;106165;1254;61208;-79
2023/12/25 08:06:04;;;;;;;7.80;5.70;;;;;;;2.17;100.00;97589.45;106704;1254;59500;-78
2023/12/25 08:08:32;;;;;;;9.20;6.00;;;;;;;2.18;100.00;97590.20;108633;1254;72226;-79
2023/12/25 08:10:59;;;;;;;8.00;5.70;;;;;;;2.21;100.00;97590.92;109306;1253;69060;-78
2023/12/25 08:13:25;;;;;;;9.90;5.60;;;;;;;2.24;100.00;97572.60;108895;1254;71229;-78
2023/12/25 08:15:52;;;;;;;7.00;5.00;;;;;;;2.28;100.00;97565.73;109214;1253;59671;-77
2023/12/25 08:18:18;;;;;;;7.30;5.30;;;;;;;2.34;100.00;97576.07;109413;1253;57316;-80
2023/12/25 08:20:45;;;;;;;8.50;5.80;;;;;;;2.39;100.00;97558.41;109419;1253;71626;-79
2023/12/25 08:23:13;;;;;;;12.00;6.00;;;;;;;2.43;100.00;97570.01;109337;1254;70430;-81
2023/12/25 08:25:40;;;;;;;7.60;5.40;;;;;;;2.50;100.00;97560.68;108875;1254;71373;-79
2023/12/25 08:28:07;;;;;;;8.90;5.70;;;;;;;2.56;100.00;97564.20;108744;1254;60473;-79
2023/12/25 08:30:34;;;;;;;9.00;6.50;;;;;;;2.61;100.00;97561.15;109405;1253;57945;-79
2023/12/25 08:33:01;;;;;;;9.80;6.20;;;;;;;2.66;100.00;97560.52;109313;1255;71752;-83
2023/12/25 08:35:28;;;;;;;8.00;5.50;;;;;;;2.66;100.00;97563.23;109155;1254;69120;-81
2023/12/25 08:37:55;;;;;;;9.90;5.80;;;;;;;2.73;100.00;97568.94;108712;1256;71167;-82
2023/12/25 08:40:22;;;;;;;10.30;6.10;;;;;;;2.83;100.00;97563.09;109403;1256;59548;-77
2023/12/25 08:42:49;;;;;;;8.10;5.60;;;;;;;2.91;100.00;97560.81;109253;1253;58808;-78
2023/12/25 08:45:16;;;;;;;7.00;4.90;;;;;;;3.02;100.00;97562.02;109315;1254;72079;-78
2023/12/25 08:47:43;;;;;;;6.30;4.80;;;;;;;3.13;100.00;97569.30;109253;1254;68699;-78
2023/12/25 08:50:10;;;;;;;8.80;5.90;;;;;;;3.20;100.00;97579.06;109306;1257;72790;-77
2023/12/25 08:52:37;;;;;;;5.60;4.20;;;;;;;3.21;100.00;97578.63;108136;1255;59549;-80
2023/12/25 08:55:04;;;;;;;7.00;5.20;;;;;;;3.30;100.00;97579.36;109485;1254;60077;-78
2023/12/25 08:57:35;;;;;;;6.70;5.10;;;;;;;3.38;100.00;97579.31;109400;1254;71848;-79
2023/12/25 09:00:06;;;;;;;8.70;5.20;;;;;;;3.42;100.00;97580.78;109220;1254;69188;-79
2023/12/25 09:02:34;;;;;;;7.10;4.40;;;;;;;3.41;100.00;97583.77;109118;1251;71269;-78
2023/12/25 09:05:01;;;;;;;6.20;4.60;;;;;;;3.44;100.00;97583.13;109051;1251;60529;-77
2023/12/25 09:07:33;;;;;;;11.90;9.10;;;;;;;3.53;100.00;97579.55;108669;1251;59775;-78
2023/12/25 09:10:03;;;;;;;10.70;9.00;;;;;;;3.60;100.00;97586.42;108488;1251;73002;-76
2023/12/25 09:12:32;;;;;;;13.60;9.00;;;;;;;3.63;100.00;97582.36;108570;1251;69528;-80
2023/12/25 09:14:59;;;;;;;9.80;6.30;;;;;;;3.64;100.00;97590.66;108338;1254;72685;-80
2023/12/25 09:17:26;;;;;;;9.60;5.50;;;;;;;3.68;100.00;97591.08;108376;1253;60736;-79
2023/12/25 09:19:54;;;;;;;9.80;5.20;;;;;;;3.72;100.00;97589.92;108117;1253;60418;-78
2023/12/25 09:22:23;;;;;;;7.30;4.80;;;;;;;3.68;100.00;97590.23;107989;1256;72517;-76
2023/12/25 09:24:50;;;;;;;8.20;4.90;;;;;;;3.69;100.00;97587.30;107435;1254;69109;-78
2023/12/25 09:27:17;;;;;;;5.90;4.50;;;;;;;3.73;100.00;97580.85;107499;1251;71432;-79
2023/12/25 09:29:44;;;;;;;6.30;4.30;;;;;;;3.78;100.00;97579.80;108147;1254;62406;-75
2023/12/25 09:32:11;;;;;;;8.90;4.60;;;;;;;3.81;100.00;97582.44;108550;1253;60469;-76
2023/12/25 09:34:38;;;;;;;5.50;3.50;;;;;;;3.82;100.00;97581.48;108620;1254;73170;-78
2023/12/25 09:37:28;;;;;;;7.40;5.00;;;;;;;3.87;100.00;97580.67;108036;1251;70156;-78
2023/12/25 09:39:55;;;;;;;10.40;5.50;;;;;;;3.94;100.00;97574.55;107858;1253;73351;-76
2023/12/25 09:42:21;;;;;;;10.70;6.10;;;;;;;4.01;100.00;97577.82;107571;1254;60672;-79
2023/12/25 09:44:54;;;;;;;8.70;4.60;;;;;;;4.07;100.00;97578.38;107771;1253;60418;-77
2023/12/25 09:47:21;;;;;;;6.70;4.50;;;;;;;4.11;100.00;97573.44;107956;1254;73916;-75
2023/12/25 09:49:48;;;;;;;5.80;4.20;;;;;;;4.15;100.00;97574.79;108283;1251;70333;-79
2023/12/25 09:52:16;;;;;;;5.70;3.70;;;;;;;4.18;100.00;97571.08;107487;1253;71212;-75
2023/12/25 09:54:44;;;;;;;5.70;4.20;;;;;;;4.17;100.00;97565.34;107981;1251;60508;-79
2023/12/25 09:57:13;;;;;;;6.90;4.30;;;;;;;4.23;100.00;97560.25;107264;1256;60416;-74
2023/12/25 09:59:40;;;;;;;6.70;3.90;;;;;;;4.30;100.00;97566.30;106349;1256;74141;-75
2023/12/25 10:02:07;;;;;;;6.80;4.20;;;;;;;4.34;100.00;97564.89;106231;1251;70207;-77
2023/12/25 10:04:42;;;;;;;5.90;4.50;;;;;;;4.29;100.00;97572.27;106357;1254;72339;-76
2023/12/25 10:07:32;;;;;;;8.40;4.10;;;;;;;4.38;100.00;97588.98;106661;1257;60806;-74
2023/12/25 10:09:59;;;;;;;7.80;4.40;;;;;;;4.45;100.00;97588.60;106667;1257;60634;-71
2023/12/25 10:12:27;;;;;;;8.80;5.80;;;;;;;4.52;100.00;97588.16;106475;1256;74006;-73
2023/12/25 10:14:54;;;;;;;7.10;5.60;;;;;;;4.61;100.00;97589.85;106330;1256;69270;-76
2023/12/25 10:17:21;;;;;;;6.70;4.60;;;;;;;4.65;100.00;97592.45;106259;1251;72652;-76
2023/12/25 10:19:52;;;;;;;8.30;5.70;;;;;;;4.72;100.00;97579.84;106360;1254;61631;-76
2023/12/25 10:22:39;;;;;;;7.60;4.80;;;;;;;4.79;100.00;97586.03;106486;1254;60294;-77
2023/12/25 10:25:10;;;;;;;7.90;4.40;;;;;;;4.81;100.00;97586.58;107602;1254;73815;-76
2023/12/25 10:27:39;;;;;;;5.50;4.30;;;;;;;4.84;100.00;97592.44;108253;1251;70354;-74
2023/12/25 10:30:19;;;;;;;7.20;4.60;;;;;;;4.84;100.00;97591.27;106585;1251;72673;-75
2023/12/25 10:32:47;;;;;;;5.90;4.20;;;;;;;4.84;100.00;97585.40;106323;1254;61857;-75
2023/12/25 10:35:22;;;;;;;8.20;5.40;;;;;;;4.84;100.00;97588.26;105997;1254;60519;-77
2023/12/25 10:37:50;;;;;;;10.00;6.40;;;;;;;4.81;100.00;97592.52;106370;1254;73911;-74
2023/12/25 10:40:18;;;;;;;7.90;5.10;;;;;;;4.82;100.00;97593.73;106371;1251;69227;-75
2023/12/25 10:42:47;;;;;;;5.90;4.20;;;;;;;4.85;100.00;97593.80;106153;1259;70425;-73
2023/12/25 10:45:18;;;;;;;6.50;4.40;;;;;;;4.90;100.00;97582.73;106409;1257;60425;-73
2023/12/25 10:47:46;;;;;;;6.40;4.80;;;;;;;4.96;100.00;97602.74;106538;1256;60533;-75
2023/12/25 10:50:13;;;;;;;6.70;4.60;;;;;;;5.09;100.00;97591.91;106281;1251;73952;-75
2023/12/25 10:52:43;;;;;;;8.60;4.50;;;;;;;5.61;100.00;97592.27;106275;1254;69359;-75
2023/12/25 10:55:10;;;;;;;5.00;3.80;;;;;;;6.39;99.38;97591.67;106280;1254;73671;-76
2023/12/25 10:57:37;;;;;;;6.90;5.20;;;;;;;6.79;93.98;97590.83;106355;1257;61791;-76
2023/12/25 11:00:05;;;;;;;4.90;4.40;;;;;;;6.95;94.09;97591.57;106286;1251;59425;-75
2023/12/25 11:02:32;;;;;;;5.00;3.80;;;;;;;7.20;91.74;97589.91;106352;1254;72841;-75
2023/12/25 11:05:00;;;;;;;6.70;4.30;;;;;;;7.30;89.74;97593.27;106245;1254;70391;-74
2023/12/25 11:07:28;;;;;;;5.60;3.90;;;;;;;7.33;89.58;97592.73;106192;1257;71023;-75
2023/12/25 11:09:55;;;;;;;4.20;3.30;;;;;;;7.26;88.90;97598.62;106490;1254;61772;-76
2023/12/25 11:12:23;;;;;;;8.20;5.10;;;;;;;7.16;89.26;97593.44;106256;1256;60408;-76
2023/12/25 11:14:50;;;;;;;6.40;5.80;;;;;;;6.92;89.28;97597.81;106282;1254;72300;-74
2023/12/25 11:17:17;;;;;;;6.10;4.80;;;;;;;6.69;89.97;97599.46;106965;1256;68815;-76
2023/12/25 11:19:46;;;;;;;4.80;3.90;;;;;;;6.57;90.74;97598.91;107959;1253;71059;-77
2023/12/25 11:22:28;;;;;;;6.70;3.90;;;;;;;6.43;91.22;97601.30;107141;1254;60462;-75
2023/12/25 11:24:58;;;;;;;5.50;3.80;;;;;;;6.28;92.32;97596.52;106787;1254;60310;-76
2023/12/25 11:27:26;;;;;;;7.10;4.80;;;;;;;6.24;92.82;97596.57;106401;1256;73586;-75